sensor_id;sensor_type;location;lat;lon;timestamp;temperature;humidity
14517;DHT22;7344;50.864;4.362;2023-01-15T00:00:59;9.20;99.90
14517;DHT22;7344;50.864;4.362;2023-01-15T00:03:25;9.20;99.90
14517;DHT22;7344;50.864;4.362;2023-01-15T00:05:51;9.20;99.90
14517;DHT22;7344;50.864;4.362;2023-01-15T00:08:16;9.20;99.90
14517;DHT22;7344;50.864;4.362;2023-01-15T00:10:42;9.10;99.90
14517;DHT22;7344;50.864;4.362;2023-01-15T00:13:08;9.10;99.90
14517;DHT22;7344;50.864;4.362;2023-01-15T00:15:34;9.00;99.90
14517;DHT22;7344;50.864;4.362;2023-01-15T00:18:00;9.00;99.90
14517;DHT22;7344;50.864;4.362;2023-01-15T00:20:26;9.10;99.90
14517;DHT22;7344;50.864;4.362;2023-01-15T00:22:52;9.10;99.90
14517;DHT22;7344;50.864;4.362;2023-01-15T00:25:17;9.00;99.90
14517;DHT22;7344;50.864;4.362;2023-01-15T00:28:02;9.00;99.90
14517;DHT22;7344;50.864;4.362;2023-01-15T00:30:27;9.00;99.90
14517;DHT22;7344;50.864;4.362;2023-01-15T00:32:53;9.00;99.90
14517;DHT22;7344;50.864;4.362;2023-01-15T00:35:21;9.10;99.90
14517;DHT22;7344;50.864;4.362;2023-01-15T00:37:47;9.00;99.90
14517;DHT22;7344;50.864;4.362;2023-01-15T00:40:15;9.00;99.90
14517;DHT22;7344;50.864;4.362;2023-01-15T00:42:41;8.90;99.90
14517;DHT22;7344;50.864;4.362;2023-01-15T00:45:08;9.00;99.90
14517;DHT22;7344;50.864;4.362;2023-01-15T00:47:38;9.00;99.90
14517;DHT22;7344;50.864;4.362;2023-01-15T00:50:05;9.10;99.90
14517;DHT22;7344;50.864;4.362;2023-01-15T00:52:31;9.10;99.90
14517;DHT22;7344;50.864;4.362;2023-01-15T00:54:57;9.10;99.90
14517;DHT22;7344;50.864;4.362;2023-01-15T00:57:22;9.20;99.90
14517;DHT22;7344;50.864;4.362;2023-01-15T00:59:48;9.10;99.90
14517;DHT22;7344;50.864;4.362;2023-01-15T01:02:14;9.00;99.90
14517;DHT22;7344;50.864;4.362;2023-01-15T01:04:39;9.00;99.90
14517;DHT22;7344;50.864;4.362;2023-01-15T01:07:05;9.00;99.90
14517;DHT22;7344;50.864;4.362;2023-01-15T01:09:30;9.00;99.90
14517;DHT22;7344;50.864;4.362;2023-01-15T01:11:56;9.00;99.90
14517;DHT22;7344;50.864;4.362;2023-01-15T01:14:22;9.00;99.90
14517;DHT22;7344;50.864;4.362;2023-01-15T01:16:48;9.00;99.90
14517;DHT22;7344;50.864;4.362;2023-01-15T01:19:16;9.00;99.90
14517;DHT22;7344;50.864;4.362;2023-01-15T01:21:42;8.90;99.90
14517;DHT22;7344;50.864;4.362;2023-01-15T01:24:11;8.90;99.90
14517;DHT22;7344;50.864;4.362;2023-01-15T01:26:37;8.90;99.90
14517;DHT22;7344;50.864;4.362;2023-01-15T01:29:03;8.90;99.90
14517;DHT22;7344;50.864;4.362;2023-01-15T01:31:29;8.90;99.90
14517;DHT22;7344;50.864;4.362;2023-01-15T01:33:56;8.80;99.90
14517;DHT22;7344;50.864;4.362;2023-01-15T01:36:33;8.90;99.90
14517;DHT22;7344;50.864;4.362;2023-01-15T01:39:00;8.90;99.90
14517;DHT22;7344;50.864;4.362;2023-01-15T01:41:26;8.90;99.90
14517;DHT22;7344;50.864;4.362;2023-01-15T01:46:21;9.00;99.90
14517;DHT22;7344;50.864;4.362;2023-01-15T01:48:48;9.00;99.90
14517;DHT22;7344;50.864;4.362;2023-01-15T01:51:16;8.90;99.90
14517;DHT22;7344;50.864;4.362;2023-01-15T01:53:42;8.90;99.90
14517;DHT22;7344;50.864;4.362;2023-01-15T01:56:09;8.80;99.90
14517;DHT22;7344;50.864;4.362;2023-01-15T01:58:36;8.90;99.90
14517;DHT22;7344;50.864;4.362;2023-01-15T02:01:02;9.00;99.90
14517;DHT22;7344;50.864;4.362;2023-01-15T02:03:36;8.90;99.90
14517;DHT22;7344;50.864;4.362;2023-01-15T02:06:06;8.90;99.90
14517;DHT22;7344;50.864;4.362;2023-01-15T02:08:33;8.90;99.90
14517;DHT22;7344;50.864;4.362;2023-01-15T02:10:59;8.80;99.90
14517;DHT22;7344;50.864;4.362;2023-01-15T02:13:40;8.80;99.90
14517;DHT22;7344;50.864;4.362;2023-01-15T02:27:01;8.40;99.90
14517;DHT22;7344;50.864;4.362;2023-01-15T02:32:14;8.20;99.90
14517;DHT22;7344;50.864;4.362;2023-01-15T02:34:49;8.20;99.90
14517;DHT22;7344;50.864;4.362;2023-01-15T02:37:22;8.30;99.90
14517;DHT22;7344;50.864;4.362;2023-01-15T02:39:50;8.20;99.90
14517;DHT22;7344;50.864;4.362;2023-01-15T02:42:18;8.30;99.90
14517;DHT22;7344;50.864;4.362;2023-01-15T02:44:48;8.30;99.90
14517;DHT22;7344;50.864;4.362;2023-01-15T02:47:19;8.30;99.90
14517;DHT22;7344;50.864;4.362;2023-01-15T02:49:47;8.30;99.90
14517;DHT22;7344;50.864;4.362;2023-01-15T02:52:36;8.20;99.90
14517;DHT22;7344;50.864;4.362;2023-01-15T02:55:10;8.20;99.90
14517;DHT22;7344;50.864;4.362;2023-01-15T02:57:38;8.20;99.90
14517;DHT22;7344;50.864;4.362;2023-01-15T03:00:09;8.20;99.90
14517;DHT22;7344;50.864;4.362;2023-01-15T03:02:41;8.20;99.90
14517;DHT22;7344;50.864;4.362;2023-01-15T03:05:11;8.10;99.90
14517;DHT22;7344;50.864;4.362;2023-01-15T03:07:47;8.10;99.90
14517;DHT22;7344;50.864;4.362;2023-01-15T03:10:14;8.20;99.90
14517;DHT22;7344;50.864;4.362;2023-01-15T03:12:44;8.10;99.90
14517;DHT22;7344;50.864;4.362;2023-01-15T03:18:20;8.10;99.90
14517;DHT22;7344;50.864;4.362;2023-01-15T03:20:51;8.10;99.90
14517;DHT22;7344;50.864;4.362;2023-01-15T03:23:18;8.10;99.90
14517;DHT22;7344;50.864;4.362;2023-01-15T03:25:48;8.10;99.90
14517;DHT22;7344;50.864;4.362;2023-01-15T03:28:17;8.10;99.90
14517;DHT22;7344;50.864;4.362;2023-01-15T03:30:45;8.10;99.90
14517;DHT22;7344;50.864;4.362;2023-01-15T03:33:11;8.10;99.90
14517;DHT22;7344;50.864;4.362;2023-01-15T03:35:44;8.10;99.90
14517;DHT22;7344;50.864;4.362;2023-01-15T03:38:11;8.10;99.90
14517;DHT22;7344;50.864;4.362;2023-01-15T03:40:45;8.10;99.90
14517;DHT22;7344;50.864;4.362;2023-01-15T03:43:13;8.10;99.90
14517;DHT22;7344;50.864;4.362;2023-01-15T03:46:02;8.00;99.90
14517;DHT22;7344;50.864;4.362;2023-01-15T03:48:48;7.90;99.90
14517;DHT22;7344;50.864;4.362;2023-01-15T03:51:37;7.90;99.90
14517;DHT22;7344;50.864;4.362;2023-01-15T03:54:08;7.80;99.90
14517;DHT22;7344;50.864;4.362;2023-01-15T03:56:43;7.90;99.90
14517;DHT22;7344;50.864;4.362;2023-01-15T03:59:17;7.80;99.90
14517;DHT22;7344;50.864;4.362;2023-01-15T04:01:47;7.90;99.90
14517;DHT22;7344;50.864;4.362;2023-01-15T04:04:13;7.90;99.90
14517;DHT22;7344;50.864;4.362;2023-01-15T04:06:41;7.80;99.90
14517;DHT22;7344;50.864;4.362;2023-01-15T04:09:09;7.70;99.90
14517;DHT22;7344;50.864;4.362;2023-01-15T04:11:36;7.80;99.90
14517;DHT22;7344;50.864;4.362;2023-01-15T04:14:02;7.70;99.90
14517;DHT22;7344;50.864;4.362;2023-01-15T04:16:30;7.70;99.90
14517;DHT22;7344;50.864;4.362;2023-01-15T04:18:56;7.70;99.90
14517;DHT22;7344;50.864;4.362;2023-01-15T04:21:22;7.70;99.90
14517;DHT22;7344;50.864;4.362;2023-01-15T04:23:47;7.70;99.90
14517;DHT22;7344;50.864;4.362;2023-01-15T04:26:13;7.70;99.90
14517;DHT22;7344;50.864;4.362;2023-01-15T04:28:39;7.70;99.90
14517;DHT22;7344;50.864;4.362;2023-01-15T04:31:06;7.70;99.90
14517;DHT22;7344;50.864;4.362;2023-01-15T04:33:31;7.70;99.90
14517;DHT22;7344;50.864;4.362;2023-01-15T04:36:01;7.70;99.90
14517;DHT22;7344;50.864;4.362;2023-01-15T04:38:27;7.60;99.90
14517;DHT22;7344;50.864;4.362;2023-01-15T04:40:53;7.70;99.90
14517;DHT22;7344;50.864;4.362;2023-01-15T04:43:37;7.60;99.90
14517;DHT22;7344;50.864;4.362;2023-01-15T04:46:22;7.60;99.90
14517;DHT22;7344;50.864;4.362;2023-01-15T04:48:47;7.70;99.90
14517;DHT22;7344;50.864;4.362;2023-01-15T04:51:13;7.70;99.90
14517;DHT22;7344;50.864;4.362;2023-01-15T04:53:39;7.80;99.90
14517;DHT22;7344;50.864;4.362;2023-01-15T04:56:05;7.70;99.90
14517;DHT22;7344;50.864;4.362;2023-01-15T04:58:32;7.60;99.90
14517;DHT22;7344;50.864;4.362;2023-01-15T05:00:58;7.60;99.90
14517;DHT22;7344;50.864;4.362;2023-01-15T05:03:25;7.60;99.90
14517;DHT22;7344;50.864;4.362;2023-01-15T05:05:51;7.60;99.90
14517;DHT22;7344;50.864;4.362;2023-01-15T05:08:17;7.50;99.90
14517;DHT22;7344;50.864;4.362;2023-01-15T05:10:42;7.40;99.90
14517;DHT22;7344;50.864;4.362;2023-01-15T05:13:08;7.50;99.90
14517;DHT22;7344;50.864;4.362;2023-01-15T05:15:34;7.40;99.90
14517;DHT22;7344;50.864;4.362;2023-01-15T05:17:59;7.40;99.90
14517;DHT22;7344;50.864;4.362;2023-01-15T05:20:25;7.40;99.90
14517;DHT22;7344;50.864;4.362;2023-01-15T05:22:51;7.40;99.90
14517;DHT22;7344;50.864;4.362;2023-01-15T05:25:16;7.40;99.90
14517;DHT22;7344;50.864;4.362;2023-01-15T05:27:42;7.40;99.90
14517;DHT22;7344;50.864;4.362;2023-01-15T05:30:08;7.40;99.90
14517;DHT22;7344;50.864;4.362;2023-01-15T05:32:34;7.50;99.90
14517;DHT22;7344;50.864;4.362;2023-01-15T05:34:59;7.40;99.90
14517;DHT22;7344;50.864;4.362;2023-01-15T05:37:25;7.40;99.90
14517;DHT22;7344;50.864;4.362;2023-01-15T05:39:51;7.40;99.90
14517;DHT22;7344;50.864;4.362;2023-01-15T05:42:16;7.40;99.90
14517;DHT22;7344;50.864;4.362;2023-01-15T05:44:42;7.40;99.90
14517;DHT22;7344;50.864;4.362;2023-01-15T05:47:08;7.20;99.90
14517;DHT22;7344;50.864;4.362;2023-01-15T05:49:35;7.30;99.90
14517;DHT22;7344;50.864;4.362;2023-01-15T05:52:01;7.30;99.90
14517;DHT22;7344;50.864;4.362;2023-01-15T05:54:32;7.30;99.90
14517;DHT22;7344;50.864;4.362;2023-01-15T05:56:58;7.20;99.90
14517;DHT22;7344;50.864;4.362;2023-01-15T05:59:25;7.30;99.90
14517;DHT22;7344;50.864;4.362;2023-01-15T06:01:52;7.20;99.90
14517;DHT22;7344;50.864;4.362;2023-01-15T06:04:18;7.00;99.90
14517;DHT22;7344;50.864;4.362;2023-01-15T06:06:46;6.80;99.90
14517;DHT22;7344;50.864;4.362;2023-01-15T06:09:12;6.50;99.90
14517;DHT22;7344;50.864;4.362;2023-01-15T06:11:38;6.40;99.90
14517;DHT22;7344;50.864;4.362;2023-01-15T06:14:04;6.30;99.90
14517;DHT22;7344;50.864;4.362;2023-01-15T06:16:29;6.30;99.90
14517;DHT22;7344;50.864;4.362;2023-01-15T06:18:59;6.30;99.90
14517;DHT22;7344;50.864;4.362;2023-01-15T06:21:25;6.20;99.90
14517;DHT22;7344;50.864;4.362;2023-01-15T06:23:52;6.10;99.90
14517;DHT22;7344;50.864;4.362;2023-01-15T06:26:18;6.10;99.90
14517;DHT22;7344;50.864;4.362;2023-01-15T06:28:45;6.00;99.90
14517;DHT22;7344;50.864;4.362;2023-01-15T06:31:14;6.00;99.90
14517;DHT22;7344;50.864;4.362;2023-01-15T06:33:40;6.00;99.90
14517;DHT22;7344;50.864;4.362;2023-01-15T06:36:14;6.00;99.90
14517;DHT22;7344;50.864;4.362;2023-01-15T06:38:41;6.00;99.90
14517;DHT22;7344;50.864;4.362;2023-01-15T06:41:13;6.00;99.90
14517;DHT22;7344;50.864;4.362;2023-01-15T06:43:57;6.00;99.90
14517;DHT22;7344;50.864;4.362;2023-01-15T06:46:47;6.00;99.90
14517;DHT22;7344;50.864;4.362;2023-01-15T06:49:32;6.00;99.90
14517;DHT22;7344;50.864;4.362;2023-01-15T06:51:58;6.00;99.90
14517;DHT22;7344;50.864;4.362;2023-01-15T06:54:24;6.00;99.90
14517;DHT22;7344;50.864;4.362;2023-01-15T06:56:50;6.10;99.90
14517;DHT22;7344;50.864;4.362;2023-01-15T06:59:17;6.00;99.90
14517;DHT22;7344;50.864;4.362;2023-01-15T07:01:42;6.10;99.90
14517;DHT22;7344;50.864;4.362;2023-01-15T07:04:08;6.00;99.90
14517;DHT22;7344;50.864;4.362;2023-01-15T07:06:34;6.00;99.90
14517;DHT22;7344;50.864;4.362;2023-01-15T07:08:59;6.10;99.90
14517;DHT22;7344;50.864;4.362;2023-01-15T07:11:25;6.10;99.90
14517;DHT22;7344;50.864;4.362;2023-01-15T07:13:50;6.10;99.90
14517;DHT22;7344;50.864;4.362;2023-01-15T07:16:38;6.00;99.90
14517;DHT22;7344;50.864;4.362;2023-01-15T07:19:04;6.00;99.90
14517;DHT22;7344;50.864;4.362;2023-01-15T07:21:30;6.10;99.90
14517;DHT22;7344;50.864;4.362;2023-01-15T07:23:59;6.00;99.90
14517;DHT22;7344;50.864;4.362;2023-01-15T07:26:25;6.00;99.90
14517;DHT22;7344;50.864;4.362;2023-01-15T07:28:51;6.00;99.90
14517;DHT22;7344;50.864;4.362;2023-01-15T07:31:17;5.90;99.90
14517;DHT22;7344;50.864;4.362;2023-01-15T07:33:42;5.90;99.90
14517;DHT22;7344;50.864;4.362;2023-01-15T07:36:08;5.90;99.90
14517;DHT22;7344;50.864;4.362;2023-01-15T07:38:33;5.90;99.90
14517;DHT22;7344;50.864;4.362;2023-01-15T07:40:59;5.90;99.90
14517;DHT22;7344;50.864;4.362;2023-01-15T07:43:44;6.00;99.90
14517;DHT22;7344;50.864;4.362;2023-01-15T07:46:28;6.00;99.90
14517;DHT22;7344;50.864;4.362;2023-01-15T07:49:12;6.00;99.90
14517;DHT22;7344;50.864;4.362;2023-01-15T07:51:57;6.00;99.90
14517;DHT22;7344;50.864;4.362;2023-01-15T07:54:23;6.00;99.90
14517;DHT22;7344;50.864;4.362;2023-01-15T07:56:50;6.00;99.90
14517;DHT22;7344;50.864;4.362;2023-01-15T07:59:15;6.00;99.90
14517;DHT22;7344;50.864;4.362;2023-01-15T08:01:41;6.00;99.90
14517;DHT22;7344;50.864;4.362;2023-01-15T08:04:07;6.00;99.90
14517;DHT22;7344;50.864;4.362;2023-01-15T08:06:34;6.00;99.90
14517;DHT22;7344;50.864;4.362;2023-01-15T08:09:00;6.00;99.90
14517;DHT22;7344;50.864;4.362;2023-01-15T08:11:25;6.00;99.90
14517;DHT22;7344;50.864;4.362;2023-01-15T08:14:10;6.00;99.90
14517;DHT22;7344;50.864;4.362;2023-01-15T08:16:54;6.00;99.90
14517;DHT22;7344;50.864;4.362;2023-01-15T08:19:19;5.90;99.90
14517;DHT22;7344;50.864;4.362;2023-01-15T08:21:45;5.90;99.90
14517;DHT22;7344;50.864;4.362;2023-01-15T08:24:11;5.90;99.90
14517;DHT22;7344;50.864;4.362;2023-01-15T08:26:36;6.00;99.90
14517;DHT22;7344;50.864;4.362;2023-01-15T08:29:02;6.20;99.90
14517;DHT22;7344;50.864;4.362;2023-01-15T08:31:27;6.50;99.90
14517;DHT22;7344;50.864;4.362;2023-01-15T08:33:53;6.70;99.90
14517;DHT22;7344;50.864;4.362;2023-01-15T08:36:19;7.10;99.90
14517;DHT22;7344;50.864;4.362;2023-01-15T08:38:44;7.60;99.90
14517;DHT22;7344;50.864;4.362;2023-01-15T08:41:12;7.80;99.90
14517;DHT22;7344;50.864;4.362;2023-01-15T08:43:38;8.00;99.90
14517;DHT22;7344;50.864;4.362;2023-01-15T08:46:04;8.30;99.90
14517;DHT22;7344;50.864;4.362;2023-01-15T08:48:31;8.60;99.90
14517;DHT22;7344;50.864;4.362;2023-01-15T08:50:57;9.00;99.90
14517;DHT22;7344;50.864;4.362;2023-01-15T08:53:23;9.50;99.90
14517;DHT22;7344;50.864;4.362;2023-01-15T08:55:49;9.80;99.90
14517;DHT22;7344;50.864;4.362;2023-01-15T08:58:18;10.00;99.90
14517;DHT22;7344;50.864;4.362;2023-01-15T09:00:43;9.80;99.90
14517;DHT22;7344;50.864;4.362;2023-01-15T09:03:09;10.20;99.90
14517;DHT22;7344;50.864;4.362;2023-01-15T09:05:36;10.50;99.90
14517;DHT22;7344;50.864;4.362;2023-01-15T09:08:03;10.40;99.90
14517;DHT22;7344;50.864;4.362;2023-01-15T09:10:29;10.30;99.90
14517;DHT22;7344;50.864;4.362;2023-01-15T09:12:58;10.40;99.90
14517;DHT22;7344;50.864;4.362;2023-01-15T09:15:23;10.70;99.90
14517;DHT22;7344;50.864;4.362;2023-01-15T09:17:49;10.90;99.90
14517;DHT22;7344;50.864;4.362;2023-01-15T09:20:15;11.00;99.90
14517;DHT22;7344;50.864;4.362;2023-01-15T09:22:40;10.80;99.90
14517;DHT22;7344;50.864;4.362;2023-01-15T09:25:06;10.90;99.90
14517;DHT22;7344;50.864;4.362;2023-01-15T09:27:32;11.40;99.90
14517;DHT22;7344;50.864;4.362;2023-01-15T09:29:59;11.20;99.90
14517;DHT22;7344;50.864;4.362;2023-01-15T09:32:25;10.80;99.90
14517;DHT22;7344;50.864;4.362;2023-01-15T09:34:51;10.30;99.90
14517;DHT22;7344;50.864;4.362;2023-01-15T09:37:16;9.60;99.90
14517;DHT22;7344;50.864;4.362;2023-01-15T09:39:42;9.10;99.90
14517;DHT22;7344;50.864;4.362;2023-01-15T09:45:05;8.00;99.90
14517;DHT22;7344;50.864;4.362;2023-01-15T09:48:03;7.80;99.90
14517;DHT22;7344;50.864;4.362;2023-01-15T09:50:54;7.60;99.90
14517;DHT22;7344;50.864;4.362;2023-01-15T09:53:46;7.30;99.90
14517;DHT22;7344;50.864;4.362;2023-01-15T09:56:22;7.20;99.90
14517;DHT22;7344;50.864;4.362;2023-01-15T09:58:49;7.10;99.90
14517;DHT22;7344;50.864;4.362;2023-01-15T10:01:18;7.20;99.90
14517;DHT22;7344;50.864;4.362;2023-01-15T10:03:50;7.10;99.90
14517;DHT22;7344;50.864;4.362;2023-01-15T10:06:25;7.10;99.90
14517;DHT22;7344;50.864;4.362;2023-01-15T10:11:41;7.20;99.90
14517;DHT22;7344;50.864;4.362;2023-01-15T10:14:59;7.20;99.90
14517;DHT22;7344;50.864;4.362;2023-01-15T10:17:29;7.20;99.90
14517;DHT22;7344;50.864;4.362;2023-01-15T10:19:55;7.10;99.90
14517;DHT22;7344;50.864;4.362;2023-01-15T10:25:43;6.90;99.90
14517;DHT22;7344;50.864;4.362;2023-01-15T10:28:19;6.80;99.90
14517;DHT22;7344;50.864;4.362;2023-01-15T10:30:54;6.80;99.90
14517;DHT22;7344;50.864;4.362;2023-01-15T10:36:04;6.70;99.90
14517;DHT22;7344;50.864;4.362;2023-01-15T10:38:53;6.90;99.90
14517;DHT22;7344;50.864;4.362;2023-01-15T10:43:59;8.20;99.90
14517;DHT22;7344;50.864;4.362;2023-01-15T10:46:30;8.80;99.90
14517;DHT22;7344;50.864;4.362;2023-01-15T10:49:01;9.50;99.90
14517;DHT22;7344;50.864;4.362;2023-01-15T10:51:49;9.90;99.90
14517;DHT22;7344;50.864;4.362;2023-01-15T10:54:35;10.20;99.90
14517;DHT22;7344;50.864;4.362;2023-01-15T10:57:19;10.10;99.90
14517;DHT22;7344;50.864;4.362;2023-01-15T10:59:50;9.80;99.90
14517;DHT22;7344;50.864;4.362;2023-01-15T11:02:24;9.40;99.90
14517;DHT22;7344;50.864;4.362;2023-01-15T11:04:51;9.10;99.90
14517;DHT22;7344;50.864;4.362;2023-01-15T11:07:25;9.00;99.90
14517;DHT22;7344;50.864;4.362;2023-01-15T11:09:53;9.10;99.90
14517;DHT22;7344;50.864;4.362;2023-01-15T11:12:28;9.00;99.90
14517;DHT22;7344;50.864;4.362;2023-01-15T11:15:14;8.80;99.90
14517;DHT22;7344;50.864;4.362;2023-01-15T11:18:01;8.60;99.90
14517;DHT22;7344;50.864;4.362;2023-01-15T11:20:46;8.50;99.90
14517;DHT22;7344;50.864;4.362;2023-01-15T11:23:14;8.60;99.90
14517;DHT22;7344;50.864;4.362;2023-01-15T11:25:51;8.20;99.90
14517;DHT22;7344;50.864;4.362;2023-01-15T11:28:17;8.10;99.90
14517;DHT22;7344;50.864;4.362;2023-01-15T11:30:54;8.00;99.90
14517;DHT22;7344;50.864;4.362;2023-01-15T11:33:23;8.00;99.90
14517;DHT22;7344;50.864;4.362;2023-01-15T11:35:50;7.90;99.90
14517;DHT22;7344;50.864;4.362;2023-01-15T11:38:16;7.90;99.90
14517;DHT22;7344;50.864;4.362;2023-01-15T11:43:57;8.20;99.90
14517;DHT22;7344;50.864;4.362;2023-01-15T11:46:44;8.40;99.90
14517;DHT22;7344;50.864;4.362;2023-01-15T11:49:28;8.50;99.90
14517;DHT22;7344;50.864;4.362;2023-01-15T11:52:17;8.30;99.90
14517;DHT22;7344;50.864;4.362;2023-01-15T11:54:45;8.20;99.90
14517;DHT22;7344;50.864;4.362;2023-01-15T11:57:23;8.20;99.90
14517;DHT22;7344;50.864;4.362;2023-01-15T11:59:51;8.30;99.90
14517;DHT22;7344;50.864;4.362;2023-01-15T12:02:20;8.20;99.90
14517;DHT22;7344;50.864;4.362;2023-01-15T12:04:51;8.20;99.90
14517;DHT22;7344;50.864;4.362;2023-01-15T12:07:19;8.20;99.90
14517;DHT22;7344;50.864;4.362;2023-01-15T12:15:17;8.00;99.90
14517;DHT22;7344;50.864;4.362;2023-01-15T12:23:31;8.20;99.90
14517;DHT22;7344;50.864;4.362;2023-01-15T12:26:12;8.10;99.90
14517;DHT22;7344;50.864;4.362;2023-01-15T12:29:08;8.20;99.90
14517;DHT22;7344;50.864;4.362;2023-01-15T12:32:03;8.10;99.90
14517;DHT22;7344;50.864;4.362;2023-01-15T12:37:20;7.90;99.90
14517;DHT22;7344;50.864;4.362;2023-01-15T12:39:50;7.90;99.90
14517;DHT22;7344;50.864;4.362;2023-01-15T12:42:19;7.80;99.90
14517;DHT22;7344;50.864;4.362;2023-01-15T12:45:21;7.90;99.90
14517;DHT22;7344;50.864;4.362;2023-01-15T12:48:16;8.00;99.90
14517;DHT22;7344;50.864;4.362;2023-01-15T12:50:52;8.10;99.90
14517;DHT22;7344;50.864;4.362;2023-01-15T12:53:46;8.20;99.90
14517;DHT22;7344;50.864;4.362;2023-01-15T12:56:20;8.20;99.90
14517;DHT22;7344;50.864;4.362;2023-01-15T13:01:22;8.30;99.90
14517;DHT22;7344;50.864;4.362;2023-01-15T13:06:34;8.50;99.90
14517;DHT22;7344;50.864;4.362;2023-01-15T13:09:18;8.60;99.90
14517;DHT22;7344;50.864;4.362;2023-01-15T13:11:46;8.60;99.90
14517;DHT22;7344;50.864;4.362;2023-01-15T13:14:15;8.60;99.90
14517;DHT22;7344;50.864;4.362;2023-01-15T13:19:36;8.40;99.90
14517;DHT22;7344;50.864;4.362;2023-01-15T13:22:11;8.30;99.90
14517;DHT22;7344;50.864;4.362;2023-01-15T13:27:30;8.30;99.90
14517;DHT22;7344;50.864;4.362;2023-01-15T13:32:46;8.40;99.90
14517;DHT22;7344;50.864;4.362;2023-01-15T13:35:31;8.30;99.90
14517;DHT22;7344;50.864;4.362;2023-01-15T13:38:01;8.20;99.90
14517;DHT22;7344;50.864;4.362;2023-01-15T13:40:32;8.30;99.90
14517;DHT22;7344;50.864;4.362;2023-01-15T13:43:00;8.30;99.90
14517;DHT22;7344;50.864;4.362;2023-01-15T13:45:38;8.30;99.90
14517;DHT22;7344;50.864;4.362;2023-01-15T13:50:42;8.10;99.90
14517;DHT22;7344;50.864;4.362;2023-01-15T13:56:09;7.90;99.90
14517;DHT22;7344;50.864;4.362;2023-01-15T13:58:52;7.90;99.90
14517;DHT22;7344;50.864;4.362;2023-01-15T14:06:38;7.70;99.90
14517;DHT22;7344;50.864;4.362;2023-01-15T14:09:05;7.60;99.90
14517;DHT22;7344;50.864;4.362;2023-01-15T14:11:37;7.40;99.90
14517;DHT22;7344;50.864;4.362;2023-01-15T14:17:16;7.30;99.90
14517;DHT22;7344;50.864;4.362;2023-01-15T14:19:58;7.30;99.90
14517;DHT22;7344;50.864;4.362;2023-01-15T14:28:22;7.20;99.90
14517;DHT22;7344;50.864;4.362;2023-01-15T14:31:01;7.20;99.90
14517;DHT22;7344;50.864;4.362;2023-01-15T14:34:30;7.20;99.90
14517;DHT22;7344;50.864;4.362;2023-01-15T14:36:29;7.20;99.90
14517;DHT22;7344;50.864;4.362;2023-01-15T14:39:00;7.20;99.90
14517;DHT22;7344;50.864;4.362;2023-01-15T14:41:31;7.10;99.90
14517;DHT22;7344;50.864;4.362;2023-01-15T14:43:59;7.20;99.90
14517;DHT22;7344;50.864;4.362;2023-01-15T14:46:30;7.20;99.90
14517;DHT22;7344;50.864;4.362;2023-01-15T14:48:59;7.30;99.90
14517;DHT22;7344;50.864;4.362;2023-01-15T14:51:29;7.40;99.90
14517;DHT22;7344;50.864;4.362;2023-01-15T14:56:54;7.40;99.90
14517;DHT22;7344;50.864;4.362;2023-01-15T15:02:05;7.20;99.90
14517;DHT22;7344;50.864;4.362;2023-01-15T15:04:46;7.20;99.90
14517;DHT22;7344;50.864;4.362;2023-01-15T15:07:19;7.10;99.90
14517;DHT22;7344;50.864;4.362;2023-01-15T15:09:55;7.10;99.90
14517;DHT22;7344;50.864;4.362;2023-01-15T15:12:57;7.10;99.90
14517;DHT22;7344;50.864;4.362;2023-01-15T15:15:41;7.10;99.90
14517;DHT22;7344;50.864;4.362;2023-01-15T15:26:38;7.10;99.90
14517;DHT22;7344;50.864;4.362;2023-01-15T15:29:11;7.00;99.90
14517;DHT22;7344;50.864;4.362;2023-01-15T15:31:44;7.10;99.90
14517;DHT22;7344;50.864;4.362;2023-01-15T15:34:21;7.10;99.90
14517;DHT22;7344;50.864;4.362;2023-01-15T15:36:47;7.00;99.90
14517;DHT22;7344;50.864;4.362;2023-01-15T15:39:26;7.00;99.90
14517;DHT22;7344;50.864;4.362;2023-01-15T15:41:54;6.90;99.90
14517;DHT22;7344;50.864;4.362;2023-01-15T15:44:49;6.90;99.90
14517;DHT22;7344;50.864;4.362;2023-01-15T15:47:40;6.90;99.90
14517;DHT22;7344;50.864;4.362;2023-01-15T15:50:25;6.90;99.90
14517;DHT22;7344;50.864;4.362;2023-01-15T15:52:52;6.80;99.90
14517;DHT22;7344;50.864;4.362;2023-01-15T15:55:19;6.80;99.90
14517;DHT22;7344;50.864;4.362;2023-01-15T15:57:53;6.80;99.90
14517;DHT22;7344;50.864;4.362;2023-01-15T16:00:33;6.80;99.90
14517;DHT22;7344;50.864;4.362;2023-01-15T16:03:07;6.90;99.90
14517;DHT22;7344;50.864;4.362;2023-01-15T16:05:40;6.80;99.90
14517;DHT22;7344;50.864;4.362;2023-01-15T16:08:15;6.70;99.90
14517;DHT22;7344;50.864;4.362;2023-01-15T16:10:42;6.70;99.90
14517;DHT22;7344;50.864;4.362;2023-01-15T16:13:15;6.70;99.90
14517;DHT22;7344;50.864;4.362;2023-01-15T16:15:44;6.70;99.90
14517;DHT22;7344;50.864;4.362;2023-01-15T16:18:24;6.60;99.90
14517;DHT22;7344;50.864;4.362;2023-01-15T16:20:51;6.40;99.90
14517;DHT22;7344;50.864;4.362;2023-01-15T16:23:23;6.40;99.90
14517;DHT22;7344;50.864;4.362;2023-01-15T16:28:39;6.30;99.90
14517;DHT22;7344;50.864;4.362;2023-01-15T16:31:08;6.30;99.90
14517;DHT22;7344;50.864;4.362;2023-01-15T16:33:36;6.30;99.90
14517;DHT22;7344;50.864;4.362;2023-01-15T16:36:03;6.30;99.90
14517;DHT22;7344;50.864;4.362;2023-01-15T16:38:40;6.30;99.90
14517;DHT22;7344;50.864;4.362;2023-01-15T16:41:15;6.30;99.90
14517;DHT22;7344;50.864;4.362;2023-01-15T16:43:56;6.30;99.90
14517;DHT22;7344;50.864;4.362;2023-01-15T16:46:24;6.30;99.90
14517;DHT22;7344;50.864;4.362;2023-01-15T16:51:41;6.20;99.90
14517;DHT22;7344;50.864;4.362;2023-01-15T16:59:58;6.20;99.90
14517;DHT22;7344;50.864;4.362;2023-01-15T17:02:32;6.10;99.90
14517;DHT22;7344;50.864;4.362;2023-01-15T17:04:59;6.00;99.90
14517;DHT22;7344;50.864;4.362;2023-01-15T17:07:34;5.80;99.90
14517;DHT22;7344;50.864;4.362;2023-01-15T17:10:03;5.80;99.90
14517;DHT22;7344;50.864;4.362;2023-01-15T17:12:34;5.70;99.90
14517;DHT22;7344;50.864;4.362;2023-01-15T17:17:47;5.70;99.90
14517;DHT22;7344;50.864;4.362;2023-01-15T17:20:14;5.60;99.90
14517;DHT22;7344;50.864;4.362;2023-01-15T17:22:42;5.60;99.90
14517;DHT22;7344;50.864;4.362;2023-01-15T17:27:54;5.60;99.90
14517;DHT22;7344;50.864;4.362;2023-01-15T17:30:20;5.60;99.90
14517;DHT22;7344;50.864;4.362;2023-01-15T17:32:47;5.60;99.90
14517;DHT22;7344;50.864;4.362;2023-01-15T17:35:21;5.70;99.90
14517;DHT22;7344;50.864;4.362;2023-01-15T17:37:47;5.70;99.90
14517;DHT22;7344;50.864;4.362;2023-01-15T17:40:13;5.70;99.90
14517;DHT22;7344;50.864;4.362;2023-01-15T17:42:38;5.80;99.90
14517;DHT22;7344;50.864;4.362;2023-01-15T17:45:04;5.90;99.90
14517;DHT22;7344;50.864;4.362;2023-01-15T17:47:30;5.90;99.90
14517;DHT22;7344;50.864;4.362;2023-01-15T17:49:55;6.00;99.90
14517;DHT22;7344;50.864;4.362;2023-01-15T17:52:21;6.10;99.90
14517;DHT22;7344;50.864;4.362;2023-01-15T17:54:47;6.20;99.90
14517;DHT22;7344;50.864;4.362;2023-01-15T17:57:31;6.20;99.90
14517;DHT22;7344;50.864;4.362;2023-01-15T18:00:16;6.30;99.90
14517;DHT22;7344;50.864;4.362;2023-01-15T18:03:00;6.30;99.90
14517;DHT22;7344;50.864;4.362;2023-01-15T18:05:46;6.40;99.90
14517;DHT22;7344;50.864;4.362;2023-01-15T18:08:12;6.50;99.90
14517;DHT22;7344;50.864;4.362;2023-01-15T18:10:38;6.60;99.90
14517;DHT22;7344;50.864;4.362;2023-01-15T18:13:04;6.60;99.90
14517;DHT22;7344;50.864;4.362;2023-01-15T18:15:32;6.70;99.90
14517;DHT22;7344;50.864;4.362;2023-01-15T18:17:58;6.80;99.90
14517;DHT22;7344;50.864;4.362;2023-01-15T18:20:24;6.80;99.90